Brookside, Utah
Current Conditions -  °F | °C
As of 1:55 AM on Friday 31 Oct 2014 (Local Time) from KSGU Reporting Station
Clear Clear  
Wind Chill: 61°   Ceiling: Unl
Heat Index: 61°   Visibility: 10mi
Dew Point: 21°   Wind: 7mph
Humidity: 22%   Direction: 20°NNE
Pressure: 30.05"   Gusts: NA
Location:  37.352°N, 113.671°W
Report Text: KSGU 310755Z AUTO 02006KT 10SM CLR 16/M06 A3005 RMK AO1
Loading
Personal Weather Stations






























Interactive Weather Map
Tropical Storm Tracking
New forecast layout! Learn more

10-Day Weather Forecast

Advertisements
Track Severe Weather on mobile